sensor_id;sensor_type;location;lat;lon;timestamp;temperature;humidity
81524;DHT22;70954;49.500;10.416;2023-07-31T00:01:40;19.40;51.20
81524;DHT22;70954;49.500;10.416;2023-07-31T00:04:05;19.30;51.20
81524;DHT22;70954;49.500;10.416;2023-07-31T00:06:31;19.30;51.30
81524;DHT22;70954;49.500;10.416;2023-07-31T00:08:56;19.40;51.30
81524;DHT22;70954;49.500;10.416;2023-07-31T00:11:22;19.40;51.20
81524;DHT22;70954;49.500;10.416;2023-07-31T00:13:47;19.40;51.20
81524;DHT22;70954;49.500;10.416;2023-07-31T00:16:13;19.40;51.20
81524;DHT22;70954;49.500;10.416;2023-07-31T00:18:38;19.40;51.20
81524;DHT22;70954;49.500;10.416;2023-07-31T00:21:04;19.40;51.30
81524;DHT22;70954;49.500;10.416;2023-07-31T00:23:29;19.40;51.30
81524;DHT22;70954;49.500;10.416;2023-07-31T00:25:54;19.40;51.40
81524;DHT22;70954;49.500;10.416;2023-07-31T00:28:20;19.40;51.40
81524;DHT22;70954;49.500;10.416;2023-07-31T00:30:45;19.40;51.30
81524;DHT22;70954;49.500;10.416;2023-07-31T00:33:11;19.40;51.40
81524;DHT22;70954;49.500;10.416;2023-07-31T00:35:36;19.40;51.40
81524;DHT22;70954;49.500;10.416;2023-07-31T00:38:02;19.40;51.40
81524;DHT22;70954;49.500;10.416;2023-07-31T00:40:27;19.40;51.40
81524;DHT22;70954;49.500;10.416;2023-07-31T00:42:53;19.40;51.40
81524;DHT22;70954;49.500;10.416;2023-07-31T00:45:18;19.30;51.50
81524;DHT22;70954;49.500;10.416;2023-07-31T00:47:43;19.30;51.50
81524;DHT22;70954;49.500;10.416;2023-07-31T00:50:10;19.30;51.60
81524;DHT22;70954;49.500;10.416;2023-07-31T00:52:35;19.40;51.60
81524;DHT22;70954;49.500;10.416;2023-07-31T00:55:01;19.40;51.70
81524;DHT22;70954;49.500;10.416;2023-07-31T00:57:27;19.40;51.80
81524;DHT22;70954;49.500;10.416;2023-07-31T00:59:52;19.40;51.90
81524;DHT22;70954;49.500;10.416;2023-07-31T01:02:18;19.40;51.90
81524;DHT22;70954;49.500;10.416;2023-07-31T01:04:43;19.40;51.90
81524;DHT22;70954;49.500;10.416;2023-07-31T01:07:20;19.40;51.80
81524;DHT22;70954;49.500;10.416;2023-07-31T01:10:41;19.50;51.80
81524;DHT22;70954;49.500;10.416;2023-07-31T01:12:48;19.50;51.80
81524;DHT22;70954;49.500;10.416;2023-07-31T01:15:14;19.50;51.80
81524;DHT22;70954;49.500;10.416;2023-07-31T01:17:40;19.50;51.80
81524;DHT22;70954;49.500;10.416;2023-07-31T01:20:17;19.50;51.80
81524;DHT22;70954;49.500;10.416;2023-07-31T01:28:28;19.50;51.50
81524;DHT22;70954;49.500;10.416;2023-07-31T01:30:58;19.50;51.50
81524;DHT22;70954;49.500;10.416;2023-07-31T01:33:25;19.50;51.60
81524;DHT22;70954;49.500;10.416;2023-07-31T01:35:51;19.50;51.60
81524;DHT22;70954;49.500;10.416;2023-07-31T01:38:21;19.50;51.50
81524;DHT22;70954;49.500;10.416;2023-07-31T01:40:51;19.50;51.50
81524;DHT22;70954;49.500;10.416;2023-07-31T01:43:17;19.50;51.50
81524;DHT22;70954;49.500;10.416;2023-07-31T01:45:42;19.50;51.50
81524;DHT22;70954;49.500;10.416;2023-07-31T01:48:07;19.50;51.50
81524;DHT22;70954;49.500;10.416;2023-07-31T01:50:33;19.50;51.50
81524;DHT22;70954;49.500;10.416;2023-07-31T01:52:58;19.50;51.50
81524;DHT22;70954;49.500;10.416;2023-07-31T01:55:24;19.50;51.40
81524;DHT22;70954;49.500;10.416;2023-07-31T01:57:49;19.50;51.40
81524;DHT22;70954;49.500;10.416;2023-07-31T02:00:15;19.50;51.40
81524;DHT22;70954;49.500;10.416;2023-07-31T02:02:40;19.50;51.40
81524;DHT22;70954;49.500;10.416;2023-07-31T02:05:06;19.50;51.40
81524;DHT22;70954;49.500;10.416;2023-07-31T02:07:31;19.50;51.40
81524;DHT22;70954;49.500;10.416;2023-07-31T02:09:57;19.50;51.40
81524;DHT22;70954;49.500;10.416;2023-07-31T02:12:22;19.40;51.40
81524;DHT22;70954;49.500;10.416;2023-07-31T02:14:48;19.50;51.40
81524;DHT22;70954;49.500;10.416;2023-07-31T02:17:13;19.40;51.40
81524;DHT22;70954;49.500;10.416;2023-07-31T02:19:39;19.40;51.40
81524;DHT22;70954;49.500;10.416;2023-07-31T02:22:04;19.40;51.40
81524;DHT22;70954;49.500;10.416;2023-07-31T02:24:30;19.40;51.40
81524;DHT22;70954;49.500;10.416;2023-07-31T02:26:55;19.40;51.40
81524;DHT22;70954;49.500;10.416;2023-07-31T02:29:21;19.40;51.50
81524;DHT22;70954;49.500;10.416;2023-07-31T02:31:46;19.40;51.40
81524;DHT22;70954;49.500;10.416;2023-07-31T02:34:12;19.40;51.40
81524;DHT22;70954;49.500;10.416;2023-07-31T02:36:37;19.40;51.40
81524;DHT22;70954;49.500;10.416;2023-07-31T02:39:03;19.40;51.40
81524;DHT22;70954;49.500;10.416;2023-07-31T02:41:28;19.40;51.40
81524;DHT22;70954;49.500;10.416;2023-07-31T02:43:53;19.40;51.40
81524;DHT22;70954;49.500;10.416;2023-07-31T02:46:19;19.40;51.40
81524;DHT22;70954;49.500;10.416;2023-07-31T02:48:45;19.40;51.50
81524;DHT22;70954;49.500;10.416;2023-07-31T02:51:10;19.30;51.50
81524;DHT22;70954;49.500;10.416;2023-07-31T02:53:36;19.40;51.50
81524;DHT22;70954;49.500;10.416;2023-07-31T02:56:01;19.30;51.50
81524;DHT22;70954;49.500;10.416;2023-07-31T02:58:26;19.30;51.50
81524;DHT22;70954;49.500;10.416;2023-07-31T03:00:52;19.30;51.50
81524;DHT22;70954;49.500;10.416;2023-07-31T03:03:17;19.30;51.50
81524;DHT22;70954;49.500;10.416;2023-07-31T03:05:43;19.30;51.50
81524;DHT22;70954;49.500;10.416;2023-07-31T03:08:08;19.30;51.50
81524;DHT22;70954;49.500;10.416;2023-07-31T03:10:34;19.30;51.50
81524;DHT22;70954;49.500;10.416;2023-07-31T03:12:59;19.30;51.50
81524;DHT22;70954;49.500;10.416;2023-07-31T03:15:24;19.30;51.40
81524;DHT22;70954;49.500;10.416;2023-07-31T03:17:50;19.20;51.50
81524;DHT22;70954;49.500;10.416;2023-07-31T03:20:15;19.20;51.50
81524;DHT22;70954;49.500;10.416;2023-07-31T03:22:41;19.20;51.50
81524;DHT22;70954;49.500;10.416;2023-07-31T03:25:06;19.20;51.60
81524;DHT22;70954;49.500;10.416;2023-07-31T03:27:32;19.20;51.60
81524;DHT22;70954;49.500;10.416;2023-07-31T03:29:58;19.20;51.60
81524;DHT22;70954;49.500;10.416;2023-07-31T03:32:24;19.20;51.60
81524;DHT22;70954;49.500;10.416;2023-07-31T03:34:49;19.20;51.70
81524;DHT22;70954;49.500;10.416;2023-07-31T03:37:15;19.20;51.80
81524;DHT22;70954;49.500;10.416;2023-07-31T03:39:40;19.20;51.80
81524;DHT22;70954;49.500;10.416;2023-07-31T03:42:06;19.20;51.70
81524;DHT22;70954;49.500;10.416;2023-07-31T03:44:31;19.20;51.80
81524;DHT22;70954;49.500;10.416;2023-07-31T03:46:57;19.20;51.70
81524;DHT22;70954;49.500;10.416;2023-07-31T03:49:22;19.20;51.70
81524;DHT22;70954;49.500;10.416;2023-07-31T03:51:48;19.20;51.60
81524;DHT22;70954;49.500;10.416;2023-07-31T03:54:13;19.20;51.60
81524;DHT22;70954;49.500;10.416;2023-07-31T03:56:39;19.20;51.60
81524;DHT22;70954;49.500;10.416;2023-07-31T03:59:04;19.20;51.60
81524;DHT22;70954;49.500;10.416;2023-07-31T04:01:30;19.20;51.60
81524;DHT22;70954;49.500;10.416;2023-07-31T04:03:55;19.10;51.60
81524;DHT22;70954;49.500;10.416;2023-07-31T04:06:21;19.10;51.70
81524;DHT22;70954;49.500;10.416;2023-07-31T04:08:46;19.10;51.70
81524;DHT22;70954;49.500;10.416;2023-07-31T04:11:12;19.00;51.70
81524;DHT22;70954;49.500;10.416;2023-07-31T04:13:38;19.00;51.80
81524;DHT22;70954;49.500;10.416;2023-07-31T04:16:03;19.00;51.90
81524;DHT22;70954;49.500;10.416;2023-07-31T04:18:29;19.00;51.90
81524;DHT22;70954;49.500;10.416;2023-07-31T04:20:54;18.90;52.00
81524;DHT22;70954;49.500;10.416;2023-07-31T04:23:20;18.90;52.00
81524;DHT22;70954;49.500;10.416;2023-07-31T04:25:45;18.90;52.10
81524;DHT22;70954;49.500;10.416;2023-07-31T04:28:11;18.90;52.20
81524;DHT22;70954;49.500;10.416;2023-07-31T04:30:36;18.80;52.30
81524;DHT22;70954;49.500;10.416;2023-07-31T04:33:01;18.80;52.40
81524;DHT22;70954;49.500;10.416;2023-07-31T04:35:27;18.80;52.50
81524;DHT22;70954;49.500;10.416;2023-07-31T04:37:52;18.80;52.50
81524;DHT22;70954;49.500;10.416;2023-07-31T04:40:18;18.80;52.50
81524;DHT22;70954;49.500;10.416;2023-07-31T04:42:43;18.80;52.60
81524;DHT22;70954;49.500;10.416;2023-07-31T04:45:09;18.80;52.70
81524;DHT22;70954;49.500;10.416;2023-07-31T04:47:35;18.80;52.80
81524;DHT22;70954;49.500;10.416;2023-07-31T04:50:00;18.80;52.90
81524;DHT22;70954;49.500;10.416;2023-07-31T04:52:26;18.80;53.00
81524;DHT22;70954;49.500;10.416;2023-07-31T04:54:51;18.80;53.10
81524;DHT22;70954;49.500;10.416;2023-07-31T04:57:17;18.90;53.10
81524;DHT22;70954;49.500;10.416;2023-07-31T04:59:42;18.90;53.10
81524;DHT22;70954;49.500;10.416;2023-07-31T05:02:08;18.90;53.10
81524;DHT22;70954;49.500;10.416;2023-07-31T05:04:34;19.00;53.10
81524;DHT22;70954;49.500;10.416;2023-07-31T05:06:59;19.00;53.10
81524;DHT22;70954;49.500;10.416;2023-07-31T05:09:25;19.00;53.10
81524;DHT22;70954;49.500;10.416;2023-07-31T05:11:50;19.10;53.20
81524;DHT22;70954;49.500;10.416;2023-07-31T05:14:16;19.10;53.10
81524;DHT22;70954;49.500;10.416;2023-07-31T05:16:41;19.20;53.00
81524;DHT22;70954;49.500;10.416;2023-07-31T05:19:07;19.20;53.10
81524;DHT22;70954;49.500;10.416;2023-07-31T05:21:32;19.30;53.10
81524;DHT22;70954;49.500;10.416;2023-07-31T05:23:58;19.30;53.00
81524;DHT22;70954;49.500;10.416;2023-07-31T05:26:23;19.40;52.90
81524;DHT22;70954;49.500;10.416;2023-07-31T05:28:49;19.40;52.70
81524;DHT22;70954;49.500;10.416;2023-07-31T05:31:14;19.40;52.60
81524;DHT22;70954;49.500;10.416;2023-07-31T05:33:40;19.50;52.50
81524;DHT22;70954;49.500;10.416;2023-07-31T05:36:05;19.50;52.50
81524;DHT22;70954;49.500;10.416;2023-07-31T05:38:31;19.50;52.50
81524;DHT22;70954;49.500;10.416;2023-07-31T05:40:56;19.50;52.40
81524;DHT22;70954;49.500;10.416;2023-07-31T05:43:21;19.50;52.30
81524;DHT22;70954;49.500;10.416;2023-07-31T05:45:47;19.50;52.20
81524;DHT22;70954;49.500;10.416;2023-07-31T05:48:12;19.60;52.20
81524;DHT22;70954;49.500;10.416;2023-07-31T05:50:38;19.60;52.20
81524;DHT22;70954;49.500;10.416;2023-07-31T05:53:03;19.60;52.20
81524;DHT22;70954;49.500;10.416;2023-07-31T05:55:29;19.70;52.10
81524;DHT22;70954;49.500;10.416;2023-07-31T05:57:55;19.70;52.00
81524;DHT22;70954;49.500;10.416;2023-07-31T06:00:20;19.70;52.00
81524;DHT22;70954;49.500;10.416;2023-07-31T06:02:47;19.70;52.00
81524;DHT22;70954;49.500;10.416;2023-07-31T06:05:12;19.70;52.00
81524;DHT22;70954;49.500;10.416;2023-07-31T06:07:38;19.70;52.00
81524;DHT22;70954;49.500;10.416;2023-07-31T06:10:04;19.70;52.00
81524;DHT22;70954;49.500;10.416;2023-07-31T06:12:29;19.70;52.10
81524;DHT22;70954;49.500;10.416;2023-07-31T06:14:55;19.70;52.20
81524;DHT22;70954;49.500;10.416;2023-07-31T06:17:20;19.70;52.20
81524;DHT22;70954;49.500;10.416;2023-07-31T06:19:46;19.80;52.30
81524;DHT22;70954;49.500;10.416;2023-07-31T06:22:11;19.90;52.30
81524;DHT22;70954;49.500;10.416;2023-07-31T06:24:37;19.90;52.20
81524;DHT22;70954;49.500;10.416;2023-07-31T06:27:02;20.00;52.20
81524;DHT22;70954;49.500;10.416;2023-07-31T06:29:28;20.00;52.00
81524;DHT22;70954;49.500;10.416;2023-07-31T06:31:53;20.00;52.10
81524;DHT22;70954;49.500;10.416;2023-07-31T06:34:19;20.00;52.00
81524;DHT22;70954;49.500;10.416;2023-07-31T06:36:44;20.00;51.90
81524;DHT22;70954;49.500;10.416;2023-07-31T06:39:09;20.10;52.00
81524;DHT22;70954;49.500;10.416;2023-07-31T06:41:35;20.10;52.00
81524;DHT22;70954;49.500;10.416;2023-07-31T06:44:00;20.10;52.10
81524;DHT22;70954;49.500;10.416;2023-07-31T06:46:26;20.20;52.00
81524;DHT22;70954;49.500;10.416;2023-07-31T06:48:51;20.20;52.10
81524;DHT22;70954;49.500;10.416;2023-07-31T06:51:17;20.30;52.20
81524;DHT22;70954;49.500;10.416;2023-07-31T06:53:42;20.30;52.20
81524;DHT22;70954;49.500;10.416;2023-07-31T06:56:08;20.30;51.90
81524;DHT22;70954;49.500;10.416;2023-07-31T06:58:33;20.50;51.70
81524;DHT22;70954;49.500;10.416;2023-07-31T07:00:58;20.50;51.40
81524;DHT22;70954;49.500;10.416;2023-07-31T07:03:24;20.50;51.30
81524;DHT22;70954;49.500;10.416;2023-07-31T07:05:49;20.50;51.40
81524;DHT22;70954;49.500;10.416;2023-07-31T07:08:15;20.60;51.40
81524;DHT22;70954;49.500;10.416;2023-07-31T07:10:40;20.60;51.40
81524;DHT22;70954;49.500;10.416;2023-07-31T07:13:06;20.70;51.20
81524;DHT22;70954;49.500;10.416;2023-07-31T07:15:31;20.70;51.20
81524;DHT22;70954;49.500;10.416;2023-07-31T07:17:56;20.80;51.20
81524;DHT22;70954;49.500;10.416;2023-07-31T07:20:22;20.80;50.80
81524;DHT22;70954;49.500;10.416;2023-07-31T07:22:47;20.90;50.80
81524;DHT22;70954;49.500;10.416;2023-07-31T07:25:13;20.90;50.50
81524;DHT22;70954;49.500;10.416;2023-07-31T07:27:38;20.90;50.20
81524;DHT22;70954;49.500;10.416;2023-07-31T07:30:04;21.00;50.20
81524;DHT22;70954;49.500;10.416;2023-07-31T07:32:30;21.00;50.00
81524;DHT22;70954;49.500;10.416;2023-07-31T07:34:55;21.00;50.20
81524;DHT22;70954;49.500;10.416;2023-07-31T07:37:21;21.00;50.50
81524;DHT22;70954;49.500;10.416;2023-07-31T07:39:46;21.10;50.60
81524;DHT22;70954;49.500;10.416;2023-07-31T07:42:12;21.10;50.60
81524;DHT22;70954;49.500;10.416;2023-07-31T07:44:37;21.20;50.50
81524;DHT22;70954;49.500;10.416;2023-07-31T07:47:03;21.30;50.20
81524;DHT22;70954;49.500;10.416;2023-07-31T07:49:28;21.40;50.50
81524;DHT22;70954;49.500;10.416;2023-07-31T07:51:54;21.50;50.50
81524;DHT22;70954;49.500;10.416;2023-07-31T07:54:19;21.50;49.80
81524;DHT22;70954;49.500;10.416;2023-07-31T07:56:45;21.60;50.00
81524;DHT22;70954;49.500;10.416;2023-07-31T07:59:10;21.70;49.70
81524;DHT22;70954;49.500;10.416;2023-07-31T08:01:36;21.80;49.60
81524;DHT22;70954;49.500;10.416;2023-07-31T08:04:01;21.80;49.30
81524;DHT22;70954;49.500;10.416;2023-07-31T08:06:26;21.90;49.20
81524;DHT22;70954;49.500;10.416;2023-07-31T08:08:52;21.90;49.10
81524;DHT22;70954;49.500;10.416;2023-07-31T08:11:17;21.90;49.30
81524;DHT22;70954;49.500;10.416;2023-07-31T08:13:43;22.00;49.50
81524;DHT22;70954;49.500;10.416;2023-07-31T08:16:08;22.10;49.40
81524;DHT22;70954;49.500;10.416;2023-07-31T08:18:34;22.10;49.40
81524;DHT22;70954;49.500;10.416;2023-07-31T08:21:01;22.20;49.30
81524;DHT22;70954;49.500;10.416;2023-07-31T08:23:26;22.20;48.70
81524;DHT22;70954;49.500;10.416;2023-07-31T08:25:51;22.30;48.40
81524;DHT22;70954;49.500;10.416;2023-07-31T08:28:17;22.30;48.50
81524;DHT22;70954;49.500;10.416;2023-07-31T08:30:42;22.30;48.60
81524;DHT22;70954;49.500;10.416;2023-07-31T08:33:08;22.30;48.70
81524;DHT22;70954;49.500;10.416;2023-07-31T08:35:34;22.40;48.60
81524;DHT22;70954;49.500;10.416;2023-07-31T08:38:00;22.50;48.50
81524;DHT22;70954;49.500;10.416;2023-07-31T08:40:25;22.50;48.60
81524;DHT22;70954;49.500;10.416;2023-07-31T08:42:53;22.50;48.30
81524;DHT22;70954;49.500;10.416;2023-07-31T08:45:20;22.60;48.10
81524;DHT22;70954;49.500;10.416;2023-07-31T08:47:47;22.60;48.20
81524;DHT22;70954;49.500;10.416;2023-07-31T08:50:14;22.60;48.20
81524;DHT22;70954;49.500;10.416;2023-07-31T08:52:40;22.70;48.40
81524;DHT22;70954;49.500;10.416;2023-07-31T08:55:06;22.70;48.30
81524;DHT22;70954;49.500;10.416;2023-07-31T08:57:34;22.80;48.40
81524;DHT22;70954;49.500;10.416;2023-07-31T09:00:00;22.90;48.10
81524;DHT22;70954;49.500;10.416;2023-07-31T09:02:31;23.00;48.20
81524;DHT22;70954;49.500;10.416;2023-07-31T09:05:00;23.10;47.70
81524;DHT22;70954;49.500;10.416;2023-07-31T09:07:26;23.10;47.60
81524;DHT22;70954;49.500;10.416;2023-07-31T09:09:52;23.20;47.50
81524;DHT22;70954;49.500;10.416;2023-07-31T09:12:18;23.30;47.40
81524;DHT22;70954;49.500;10.416;2023-07-31T09:14:45;23.30;47.00
81524;DHT22;70954;49.500;10.416;2023-07-31T09:17:11;23.40;46.60
81524;DHT22;70954;49.500;10.416;2023-07-31T09:19:36;23.50;46.80
81524;DHT22;70954;49.500;10.416;2023-07-31T09:22:02;23.50;46.90
81524;DHT22;70954;49.500;10.416;2023-07-31T09:24:29;23.60;46.50
81524;DHT22;70954;49.500;10.416;2023-07-31T09:26:55;23.60;46.70
81524;DHT22;70954;49.500;10.416;2023-07-31T09:29:20;23.60;45.50
81524;DHT22;70954;49.500;10.416;2023-07-31T09:31:46;23.70;45.10
81524;DHT22;70954;49.500;10.416;2023-07-31T09:34:11;23.80;44.90
81524;DHT22;70954;49.500;10.416;2023-07-31T09:36:45;23.80;44.80
81524;DHT22;70954;49.500;10.416;2023-07-31T09:39:12;23.80;44.00
81524;DHT22;70954;49.500;10.416;2023-07-31T09:41:39;23.70;44.90
81524;DHT22;70954;49.500;10.416;2023-07-31T09:44:05;23.80;45.20
81524;DHT22;70954;49.500;10.416;2023-07-31T09:46:30;23.80;45.60
81524;DHT22;70954;49.500;10.416;2023-07-31T09:49:06;23.80;45.60
81524;DHT22;70954;49.500;10.416;2023-07-31T09:51:32;23.90;45.20
81524;DHT22;70954;49.500;10.416;2023-07-31T09:53:57;23.90;45.10
81524;DHT22;70954;49.500;10.416;2023-07-31T09:56:23;23.90;45.10
81524;DHT22;70954;49.500;10.416;2023-07-31T09:58:49;24.00;45.30
81524;DHT22;70954;49.500;10.416;2023-07-31T10:01:15;24.00;45.50
81524;DHT22;70954;49.500;10.416;2023-07-31T10:03:41;24.00;45.20
81524;DHT22;70954;49.500;10.416;2023-07-31T10:06:09;24.20;45.00
81524;DHT22;70954;49.500;10.416;2023-07-31T10:08:35;24.20;44.40
81524;DHT22;70954;49.500;10.416;2023-07-31T10:11:01;24.20;44.40
81524;DHT22;70954;49.500;10.416;2023-07-31T10:13:28;24.30;44.40
81524;DHT22;70954;49.500;10.416;2023-07-31T10:15:54;24.40;44.60
81524;DHT22;70954;49.500;10.416;2023-07-31T10:18:20;24.40;44.50
81524;DHT22;70954;49.500;10.416;2023-07-31T10:20:46;24.40;44.00
81524;DHT22;70954;49.500;10.416;2023-07-31T10:23:12;24.40;44.40
81524;DHT22;70954;49.500;10.416;2023-07-31T10:25:38;24.50;44.10
81524;DHT22;70954;49.500;10.416;2023-07-31T10:28:04;24.50;43.90
81524;DHT22;70954;49.500;10.416;2023-07-31T10:30:32;24.50;44.00
81524;DHT22;70954;49.500;10.416;2023-07-31T10:32:59;24.50;44.30
81524;DHT22;70954;49.500;10.416;2023-07-31T10:35:24;24.60;44.00
81524;DHT22;70954;49.500;10.416;2023-07-31T10:37:50;24.60;43.60
81524;DHT22;70954;49.500;10.416;2023-07-31T10:40:19;24.60;43.90
81524;DHT22;70954;49.500;10.416;2023-07-31T10:42:49;24.60;43.70
81524;DHT22;70954;49.500;10.416;2023-07-31T10:50:26;24.70;43.30
81524;DHT22;70954;49.500;10.416;2023-07-31T10:52:56;24.60;43.30
81524;DHT22;70954;49.500;10.416;2023-07-31T10:57:56;24.60;42.70
81524;DHT22;70954;49.500;10.416;2023-07-31T11:03:00;24.60;43.00
81524;DHT22;70954;49.500;10.416;2023-07-31T11:08:22;24.50;42.30
81524;DHT22;70954;49.500;10.416;2023-07-31T11:10:50;24.50;42.60
81524;DHT22;70954;49.500;10.416;2023-07-31T11:13:16;24.50;43.10
81524;DHT22;70954;49.500;10.416;2023-07-31T11:15:42;24.50;43.00
81524;DHT22;70954;49.500;10.416;2023-07-31T11:18:07;24.50;43.10
81524;DHT22;70954;49.500;10.416;2023-07-31T11:20:33;24.50;43.40
81524;DHT22;70954;49.500;10.416;2023-07-31T11:23:01;24.50;43.40
81524;DHT22;70954;49.500;10.416;2023-07-31T11:25:29;24.50;43.60
81524;DHT22;70954;49.500;10.416;2023-07-31T11:27:54;24.60;43.60
81524;DHT22;70954;49.500;10.416;2023-07-31T11:30:20;24.60;43.40
81524;DHT22;70954;49.500;10.416;2023-07-31T11:32:46;24.60;43.00
81524;DHT22;70954;49.500;10.416;2023-07-31T11:35:14;24.60;43.00
81524;DHT22;70954;49.500;10.416;2023-07-31T11:37:41;24.60;42.80
81524;DHT22;70954;49.500;10.416;2023-07-31T11:40:07;24.60;42.90
81524;DHT22;70954;49.500;10.416;2023-07-31T11:42:36;24.60;42.70
81524;DHT22;70954;49.500;10.416;2023-07-31T11:45:06;24.50;42.30
81524;DHT22;70954;49.500;10.416;2023-07-31T11:47:36;24.60;42.90
81524;DHT22;70954;49.500;10.416;2023-07-31T11:50:02;24.60;43.10
81524;DHT22;70954;49.500;10.416;2023-07-31T11:52:30;24.60;43.20
81524;DHT22;70954;49.500;10.416;2023-07-31T11:54:57;24.60;43.00
81524;DHT22;70954;49.500;10.416;2023-07-31T11:57:23;24.50;42.10
81524;DHT22;70954;49.500;10.416;2023-07-31T11:59:49;24.60;42.80
81524;DHT22;70954;49.500;10.416;2023-07-31T12:02:16;24.60;42.90
81524;DHT22;70954;49.500;10.416;2023-07-31T12:04:42;24.60;42.80
81524;DHT22;70954;49.500;10.416;2023-07-31T12:07:08;24.60;42.60
81524;DHT22;70954;49.500;10.416;2023-07-31T12:09:33;24.60;43.10
81524;DHT22;70954;49.500;10.416;2023-07-31T12:11:59;24.60;43.20
81524;DHT22;70954;49.500;10.416;2023-07-31T12:14:26;24.60;43.40
81524;DHT22;70954;49.500;10.416;2023-07-31T12:17:00;24.60;43.30
81524;DHT22;70954;49.500;10.416;2023-07-31T12:19:26;24.70;43.20
81524;DHT22;70954;49.500;10.416;2023-07-31T12:21:51;24.70;43.70
81524;DHT22;70954;49.500;10.416;2023-07-31T12:24:19;24.80;43.60
81524;DHT22;70954;49.500;10.416;2023-07-31T12:26:46;24.90;43.70
81524;DHT22;70954;49.500;10.416;2023-07-31T12:29:11;25.00;43.50
81524;DHT22;70954;49.500;10.416;2023-07-31T12:31:36;25.00;43.40
81524;DHT22;70954;49.500;10.416;2023-07-31T12:34:02;25.10;42.70
81524;DHT22;70954;49.500;10.416;2023-07-31T12:36:27;25.20;42.50
81524;DHT22;70954;49.500;10.416;2023-07-31T12:38:53;25.30;42.40
81524;DHT22;70954;49.500;10.416;2023-07-31T12:41:19;25.30;42.40
81524;DHT22;70954;49.500;10.416;2023-07-31T12:43:45;25.40;42.50
81524;DHT22;70954;49.500;10.416;2023-07-31T12:46:11;25.40;42.50
81524;DHT22;70954;49.500;10.416;2023-07-31T12:48:39;25.50;42.50
81524;DHT22;70954;49.500;10.416;2023-07-31T12:51:05;25.60;42.20
81524;DHT22;70954;49.500;10.416;2023-07-31T12:53:31;25.60;41.70
81524;DHT22;70954;49.500;10.416;2023-07-31T12:55:56;25.60;41.50
81524;DHT22;70954;49.500;10.416;2023-07-31T12:58:22;25.60;41.50
81524;DHT22;70954;49.500;10.416;2023-07-31T13:00:47;25.60;41.50
81524;DHT22;70954;49.500;10.416;2023-07-31T13:03:13;25.60;41.10
81524;DHT22;70954;49.500;10.416;2023-07-31T13:05:39;25.60;40.90
81524;DHT22;70954;49.500;10.416;2023-07-31T13:08:04;25.60;41.00
81524;DHT22;70954;49.500;10.416;2023-07-31T13:10:30;25.60;41.10
81524;DHT22;70954;49.500;10.416;2023-07-31T13:12:55;25.60;40.70
81524;DHT22;70954;49.500;10.416;2023-07-31T13:15:21;25.60;41.20
81524;DHT22;70954;49.500;10.416;2023-07-31T13:17:46;25.60;41.20
81524;DHT22;70954;49.500;10.416;2023-07-31T13:20:12;25.60;41.20
81524;DHT22;70954;49.500;10.416;2023-07-31T13:22:37;25.70;41.40
81524;DHT22;70954;49.500;10.416;2023-07-31T13:25:03;25.70;41.40
81524;DHT22;70954;49.500;10.416;2023-07-31T13:27:29;25.80;41.10
81524;DHT22;70954;49.500;10.416;2023-07-31T13:29:54;25.80;41.00
81524;DHT22;70954;49.500;10.416;2023-07-31T13:32:21;25.80;40.30
81524;DHT22;70954;49.500;10.416;2023-07-31T13:34:47;25.90;40.40
81524;DHT22;70954;49.500;10.416;2023-07-31T13:37:13;25.90;40.40
81524;DHT22;70954;49.500;10.416;2023-07-31T13:39:39;26.00;40.00
81524;DHT22;70954;49.500;10.416;2023-07-31T13:42:05;26.00;40.20
81524;DHT22;70954;49.500;10.416;2023-07-31T13:44:31;26.00;40.10
81524;DHT22;70954;49.500;10.416;2023-07-31T13:46:56;26.00;39.60
81524;DHT22;70954;49.500;10.416;2023-07-31T13:49:22;26.00;39.70
81524;DHT22;70954;49.500;10.416;2023-07-31T13:51:47;26.00;40.10
81524;DHT22;70954;49.500;10.416;2023-07-31T13:54:13;26.00;39.70
81524;DHT22;70954;49.500;10.416;2023-07-31T13:56:38;26.00;39.50
81524;DHT22;70954;49.500;10.416;2023-07-31T13:59:04;25.90;39.30
81524;DHT22;70954;49.500;10.416;2023-07-31T14:01:30;25.80;39.50
81524;DHT22;70954;49.500;10.416;2023-07-31T14:03:55;25.80;39.70
81524;DHT22;70954;49.500;10.416;2023-07-31T14:06:21;25.80;39.70
81524;DHT22;70954;49.500;10.416;2023-07-31T14:08:47;25.70;39.50
81524;DHT22;70954;49.500;10.416;2023-07-31T14:11:12;25.60;39.50
81524;DHT22;70954;49.500;10.416;2023-07-31T14:13:37;25.60;39.40
81524;DHT22;70954;49.500;10.416;2023-07-31T14:16:03;25.50;39.30
81524;DHT22;70954;49.500;10.416;2023-07-31T14:18:29;25.50;39.50
81524;DHT22;70954;49.500;10.416;2023-07-31T14:20:54;25.40;39.80
81524;DHT22;70954;49.500;10.416;2023-07-31T14:23:20;25.40;40.00
81524;DHT22;70954;49.500;10.416;2023-07-31T14:25:46;25.30;40.10
81524;DHT22;70954;49.500;10.416;2023-07-31T14:28:12;25.30;40.10
81524;DHT22;70954;49.500;10.416;2023-07-31T14:30:37;25.20;40.20
81524;DHT22;70954;49.500;10.416;2023-07-31T14:33:03;25.20;40.30
81524;DHT22;70954;49.500;10.416;2023-07-31T14:35:28;25.20;40.40
81524;DHT22;70954;49.500;10.416;2023-07-31T14:37:54;25.10;40.30
81524;DHT22;70954;49.500;10.416;2023-07-31T14:40:19;25.00;40.40
81524;DHT22;70954;49.500;10.416;2023-07-31T14:42:45;25.00;40.60
81524;DHT22;70954;49.500;10.416;2023-07-31T14:45:10;25.00;40.80
81524;DHT22;70954;49.500;10.416;2023-07-31T14:47:36;25.00;40.80
81524;DHT22;70954;49.500;10.416;2023-07-31T14:50:03;25.00;41.00
81524;DHT22;70954;49.500;10.416;2023-07-31T14:52:29;24.90;41.00
81524;DHT22;70954;49.500;10.416;2023-07-31T14:54:54;24.80;41.20
81524;DHT22;70954;49.500;10.416;2023-07-31T14:57:20;24.80;41.30
81524;DHT22;70954;49.500;10.416;2023-07-31T14:59:46;24.80;41.40
81524;DHT22;70954;49.500;10.416;2023-07-31T15:02:12;24.80;41.50
81524;DHT22;70954;49.500;10.416;2023-07-31T15:04:37;24.80;41.50
81524;DHT22;70954;49.500;10.416;2023-07-31T15:07:03;24.70;41.70
81524;DHT22;70954;49.500;10.416;2023-07-31T15:09:29;24.70;41.90
81524;DHT22;70954;49.500;10.416;2023-07-31T15:11:56;24.80;41.80
81524;DHT22;70954;49.500;10.416;2023-07-31T15:14:21;24.80;41.90
81524;DHT22;70954;49.500;10.416;2023-07-31T15:16:47;24.80;41.80
81524;DHT22;70954;49.500;10.416;2023-07-31T15:19:12;24.80;41.90
81524;DHT22;70954;49.500;10.416;2023-07-31T15:21:38;24.80;41.60
81524;DHT22;70954;49.500;10.416;2023-07-31T15:24:04;24.80;41.30
81524;DHT22;70954;49.500;10.416;2023-07-31T15:26:29;24.80;41.30